sensor_id;sensor_type;location;lat;lon;timestamp;temperature;humidity
31661;DHT22;18267;52.234;7.444;2022-08-19T00:00:16;20.00;99.90
31661;DHT22;18267;52.234;7.444;2022-08-19T00:02:42;19.90;99.90
31661;DHT22;18267;52.234;7.444;2022-08-19T00:05:10;19.80;99.90
31661;DHT22;18267;52.234;7.444;2022-08-19T00:07:36;19.80;99.90
31661;DHT22;18267;52.234;7.444;2022-08-19T00:10:04;19.90;99.90
31661;DHT22;18267;52.234;7.444;2022-08-19T00:12:30;19.90;99.90
31661;DHT22;18267;52.234;7.444;2022-08-19T00:14:55;19.90;99.90
31661;DHT22;18267;52.234;7.444;2022-08-19T00:17:21;19.90;99.90
31661;DHT22;18267;52.234;7.444;2022-08-19T00:19:47;20.10;99.90
31661;DHT22;18267;52.234;7.444;2022-08-19T00:22:12;20.00;99.90
31661;DHT22;18267;52.234;7.444;2022-08-19T00:24:38;19.80;99.90
31661;DHT22;18267;52.234;7.444;2022-08-19T00:27:05;19.70;99.90
31661;DHT22;18267;52.234;7.444;2022-08-19T00:29:30;19.60;99.90
31661;DHT22;18267;52.234;7.444;2022-08-19T00:31:57;19.50;99.90
31661;DHT22;18267;52.234;7.444;2022-08-19T00:34:24;19.50;99.90
31661;DHT22;18267;52.234;7.444;2022-08-19T00:36:51;19.50;99.90
31661;DHT22;18267;52.234;7.444;2022-08-19T00:39:17;19.40;99.90
31661;DHT22;18267;52.234;7.444;2022-08-19T00:41:44;19.50;99.90
31661;DHT22;18267;52.234;7.444;2022-08-19T00:44:15;19.50;99.90
31661;DHT22;18267;52.234;7.444;2022-08-19T00:46:44;19.50;99.90
31661;DHT22;18267;52.234;7.444;2022-08-19T00:49:28;19.60;99.90
31661;DHT22;18267;52.234;7.444;2022-08-19T00:52:06;19.40;99.90
31661;DHT22;18267;52.234;7.444;2022-08-19T00:54:32;19.30;99.90
31661;DHT22;18267;52.234;7.444;2022-08-19T00:56:59;19.30;99.90
31661;DHT22;18267;52.234;7.444;2022-08-19T00:59:28;19.30;99.90
31661;DHT22;18267;52.234;7.444;2022-08-19T01:01:53;19.30;99.90
31661;DHT22;18267;52.234;7.444;2022-08-19T01:04:19;19.10;99.90
31661;DHT22;18267;52.234;7.444;2022-08-19T01:06:45;19.10;99.90
31661;DHT22;18267;52.234;7.444;2022-08-19T01:09:10;19.10;99.90
31661;DHT22;18267;52.234;7.444;2022-08-19T01:11:39;19.10;99.90
31661;DHT22;18267;52.234;7.444;2022-08-19T01:14:07;19.10;99.90
31661;DHT22;18267;52.234;7.444;2022-08-19T01:16:34;19.10;99.90
31661;DHT22;18267;52.234;7.444;2022-08-19T01:19:00;19.20;99.90
31661;DHT22;18267;52.234;7.444;2022-08-19T01:21:34;19.20;99.90
31661;DHT22;18267;52.234;7.444;2022-08-19T01:24:02;19.20;99.90
31661;DHT22;18267;52.234;7.444;2022-08-19T01:26:28;19.20;99.90
31661;DHT22;18267;52.234;7.444;2022-08-19T01:28:56;19.30;99.90
31661;DHT22;18267;52.234;7.444;2022-08-19T01:31:24;19.30;99.90
31661;DHT22;18267;52.234;7.444;2022-08-19T01:33:52;19.10;99.90
31661;DHT22;18267;52.234;7.444;2022-08-19T01:36:31;18.90;99.90
31661;DHT22;18267;52.234;7.444;2022-08-19T01:38:58;18.90;99.90
31661;DHT22;18267;52.234;7.444;2022-08-19T01:41:24;18.90;99.90
31661;DHT22;18267;52.234;7.444;2022-08-19T01:43:51;18.80;99.90
31661;DHT22;18267;52.234;7.444;2022-08-19T01:46:17;18.80;99.90
31661;DHT22;18267;52.234;7.444;2022-08-19T01:48:44;18.70;99.90
31661;DHT22;18267;52.234;7.444;2022-08-19T01:51:11;18.60;99.90
31661;DHT22;18267;52.234;7.444;2022-08-19T01:53:37;18.60;99.90
31661;DHT22;18267;52.234;7.444;2022-08-19T01:56:03;18.70;99.90
31661;DHT22;18267;52.234;7.444;2022-08-19T01:58:38;18.70;99.90
31661;DHT22;18267;52.234;7.444;2022-08-19T02:01:05;18.80;99.90
31661;DHT22;18267;52.234;7.444;2022-08-19T02:03:31;18.80;99.90
31661;DHT22;18267;52.234;7.444;2022-08-19T02:05:59;18.70;99.90
31661;DHT22;18267;52.234;7.444;2022-08-19T02:08:26;18.80;99.90
31661;DHT22;18267;52.234;7.444;2022-08-19T02:10:52;18.60;99.90
31661;DHT22;18267;52.234;7.444;2022-08-19T02:13:19;18.60;99.90
31661;DHT22;18267;52.234;7.444;2022-08-19T02:15:45;18.50;99.90
31661;DHT22;18267;52.234;7.444;2022-08-19T02:18:10;18.60;99.90
31661;DHT22;18267;52.234;7.444;2022-08-19T02:20:37;18.60;99.90
31661;DHT22;18267;52.234;7.444;2022-08-19T02:23:04;18.70;99.90
31661;DHT22;18267;52.234;7.444;2022-08-19T02:25:30;18.60;99.90
31661;DHT22;18267;52.234;7.444;2022-08-19T02:27:55;18.40;99.90
31661;DHT22;18267;52.234;7.444;2022-08-19T02:30:22;18.20;99.90
31661;DHT22;18267;52.234;7.444;2022-08-19T02:32:47;18.20;99.90
31661;DHT22;18267;52.234;7.444;2022-08-19T02:35:14;18.30;99.90
31661;DHT22;18267;52.234;7.444;2022-08-19T02:37:41;18.30;99.90
31661;DHT22;18267;52.234;7.444;2022-08-19T02:40:25;18.10;99.90
31661;DHT22;18267;52.234;7.444;2022-08-19T02:42:51;18.00;99.90
31661;DHT22;18267;52.234;7.444;2022-08-19T02:45:16;18.20;99.90
31661;DHT22;18267;52.234;7.444;2022-08-19T02:47:42;18.20;99.90
31661;DHT22;18267;52.234;7.444;2022-08-19T02:50:08;18.20;99.90
31661;DHT22;18267;52.234;7.444;2022-08-19T02:52:34;18.10;99.90
31661;DHT22;18267;52.234;7.444;2022-08-19T02:55:00;18.10;99.90
31661;DHT22;18267;52.234;7.444;2022-08-19T02:57:26;18.10;99.90
31661;DHT22;18267;52.234;7.444;2022-08-19T02:59:53;18.10;99.90
31661;DHT22;18267;52.234;7.444;2022-08-19T03:02:19;18.30;99.90
31661;DHT22;18267;52.234;7.444;2022-08-19T03:04:44;18.20;99.90
31661;DHT22;18267;52.234;7.444;2022-08-19T03:07:13;18.10;99.90
31661;DHT22;18267;52.234;7.444;2022-08-19T03:09:39;18.00;99.90
31661;DHT22;18267;52.234;7.444;2022-08-19T03:12:05;18.00;99.90
31661;DHT22;18267;52.234;7.444;2022-08-19T03:14:32;18.00;99.90
31661;DHT22;18267;52.234;7.444;2022-08-19T03:16:58;17.90;99.90
31661;DHT22;18267;52.234;7.444;2022-08-19T03:19:24;17.70;99.90
31661;DHT22;18267;52.234;7.444;2022-08-19T03:21:50;17.50;99.90
31661;DHT22;18267;52.234;7.444;2022-08-19T03:24:17;17.50;99.90
31661;DHT22;18267;52.234;7.444;2022-08-19T03:26:46;17.50;99.90
31661;DHT22;18267;52.234;7.444;2022-08-19T03:29:13;17.40;99.90
31661;DHT22;18267;52.234;7.444;2022-08-19T03:31:40;17.30;99.90
31661;DHT22;18267;52.234;7.444;2022-08-19T03:34:06;17.30;99.90
31661;DHT22;18267;52.234;7.444;2022-08-19T03:36:32;17.40;99.90
31661;DHT22;18267;52.234;7.444;2022-08-19T03:39:00;17.50;99.90
31661;DHT22;18267;52.234;7.444;2022-08-19T03:41:29;17.60;99.90
31661;DHT22;18267;52.234;7.444;2022-08-19T03:43:55;17.70;99.90
31661;DHT22;18267;52.234;7.444;2022-08-19T03:46:27;17.80;99.90
31661;DHT22;18267;52.234;7.444;2022-08-19T03:48:56;17.90;99.90
31661;DHT22;18267;52.234;7.444;2022-08-19T03:51:29;17.90;99.90
31661;DHT22;18267;52.234;7.444;2022-08-19T03:53:57;17.80;99.90
31661;DHT22;18267;52.234;7.444;2022-08-19T03:56:23;17.80;99.90
31661;DHT22;18267;52.234;7.444;2022-08-19T03:58:51;17.80;99.90
31661;DHT22;18267;52.234;7.444;2022-08-19T04:01:20;17.70;99.90
31661;DHT22;18267;52.234;7.444;2022-08-19T04:03:46;17.60;99.90
31661;DHT22;18267;52.234;7.444;2022-08-19T04:06:17;17.50;99.90
31661;DHT22;18267;52.234;7.444;2022-08-19T04:08:45;17.50;99.90
31661;DHT22;18267;52.234;7.444;2022-08-19T04:11:13;17.50;99.90
31661;DHT22;18267;52.234;7.444;2022-08-19T04:13:39;17.60;99.90
31661;DHT22;18267;52.234;7.444;2022-08-19T04:16:07;17.70;99.90
31661;DHT22;18267;52.234;7.444;2022-08-19T04:18:34;17.80;99.90
31661;DHT22;18267;52.234;7.444;2022-08-19T04:20:59;17.80;99.90
31661;DHT22;18267;52.234;7.444;2022-08-19T04:23:26;17.80;99.90
31661;DHT22;18267;52.234;7.444;2022-08-19T04:25:54;17.60;99.90
31661;DHT22;18267;52.234;7.444;2022-08-19T04:28:20;17.50;99.90
31661;DHT22;18267;52.234;7.444;2022-08-19T04:30:48;17.40;99.90
31661;DHT22;18267;52.234;7.444;2022-08-19T04:33:16;17.50;99.90
31661;DHT22;18267;52.234;7.444;2022-08-19T04:35:43;17.60;99.90
31661;DHT22;18267;52.234;7.444;2022-08-19T04:38:10;17.60;99.90
31661;DHT22;18267;52.234;7.444;2022-08-19T04:40:44;17.50;99.90
31661;DHT22;18267;52.234;7.444;2022-08-19T04:43:29;17.50;99.90
31661;DHT22;18267;52.234;7.444;2022-08-19T04:45:54;17.40;99.90
31661;DHT22;18267;52.234;7.444;2022-08-19T04:48:20;17.30;99.90
31661;DHT22;18267;52.234;7.444;2022-08-19T04:50:51;17.20;99.90
31661;DHT22;18267;52.234;7.444;2022-08-19T04:53:18;17.10;99.90
31661;DHT22;18267;52.234;7.444;2022-08-19T04:55:43;17.10;99.90
31661;DHT22;18267;52.234;7.444;2022-08-19T04:58:09;17.20;99.90
31661;DHT22;18267;52.234;7.444;2022-08-19T05:00:38;17.30;99.90
31661;DHT22;18267;52.234;7.444;2022-08-19T05:03:03;17.20;99.90
31661;DHT22;18267;52.234;7.444;2022-08-19T05:05:29;17.30;99.90
31661;DHT22;18267;52.234;7.444;2022-08-19T05:07:56;17.40;99.90
31661;DHT22;18267;52.234;7.444;2022-08-19T05:10:22;17.50;99.90
31661;DHT22;18267;52.234;7.444;2022-08-19T05:12:47;17.70;99.90
31661;DHT22;18267;52.234;7.444;2022-08-19T05:15:13;17.80;99.90
31661;DHT22;18267;52.234;7.444;2022-08-19T05:17:39;18.10;99.90
31661;DHT22;18267;52.234;7.444;2022-08-19T05:20:24;18.00;99.90
31661;DHT22;18267;52.234;7.444;2022-08-19T05:23:11;18.00;99.90
31661;DHT22;18267;52.234;7.444;2022-08-19T05:25:39;18.00;99.90
31661;DHT22;18267;52.234;7.444;2022-08-19T05:28:05;18.00;99.90
31661;DHT22;18267;52.234;7.444;2022-08-19T05:30:30;18.00;99.90
31661;DHT22;18267;52.234;7.444;2022-08-19T05:32:56;17.90;99.90
31661;DHT22;18267;52.234;7.444;2022-08-19T05:35:21;17.90;99.90
31661;DHT22;18267;52.234;7.444;2022-08-19T05:37:49;17.90;99.90
31661;DHT22;18267;52.234;7.444;2022-08-19T05:40:14;17.90;99.90
31661;DHT22;18267;52.234;7.444;2022-08-19T05:42:40;18.00;99.90
31661;DHT22;18267;52.234;7.444;2022-08-19T05:45:06;18.10;99.90
31661;DHT22;18267;52.234;7.444;2022-08-19T05:47:32;18.20;99.90
31661;DHT22;18267;52.234;7.444;2022-08-19T05:49:58;18.20;99.90
31661;DHT22;18267;52.234;7.444;2022-08-19T05:52:23;18.20;99.90
31661;DHT22;18267;52.234;7.444;2022-08-19T05:54:49;18.30;99.90
31661;DHT22;18267;52.234;7.444;2022-08-19T05:57:16;18.30;99.90
31661;DHT22;18267;52.234;7.444;2022-08-19T05:59:42;18.30;99.90
31661;DHT22;18267;52.234;7.444;2022-08-19T06:02:09;18.30;99.90
31661;DHT22;18267;52.234;7.444;2022-08-19T06:04:34;18.40;99.90
31661;DHT22;18267;52.234;7.444;2022-08-19T06:07:03;18.50;99.90
31661;DHT22;18267;52.234;7.444;2022-08-19T06:09:30;18.70;99.90
31661;DHT22;18267;52.234;7.444;2022-08-19T06:11:58;18.70;99.90
31661;DHT22;18267;52.234;7.444;2022-08-19T06:14:31;18.80;99.90
31661;DHT22;18267;52.234;7.444;2022-08-19T06:16:57;18.80;99.90
31661;DHT22;18267;52.234;7.444;2022-08-19T06:19:24;19.00;99.90
31661;DHT22;18267;52.234;7.444;2022-08-19T06:21:51;19.20;99.90
31661;DHT22;18267;52.234;7.444;2022-08-19T06:24:22;19.30;99.90
31661;DHT22;18267;52.234;7.444;2022-08-19T06:26:51;19.50;99.90
31661;DHT22;18267;52.234;7.444;2022-08-19T06:29:21;19.60;99.90
31661;DHT22;18267;52.234;7.444;2022-08-19T06:31:50;19.70;99.90
31661;DHT22;18267;52.234;7.444;2022-08-19T06:34:17;19.70;99.90
31661;DHT22;18267;52.234;7.444;2022-08-19T06:36:45;19.80;99.90
31661;DHT22;18267;52.234;7.444;2022-08-19T06:39:17;19.80;99.90
31661;DHT22;18267;52.234;7.444;2022-08-19T06:41:46;19.90;99.90
31661;DHT22;18267;52.234;7.444;2022-08-19T06:44:12;20.10;99.90
31661;DHT22;18267;52.234;7.444;2022-08-19T06:46:39;20.10;99.90
31661;DHT22;18267;52.234;7.444;2022-08-19T06:49:06;20.20;99.90
31661;DHT22;18267;52.234;7.444;2022-08-19T06:51:34;20.20;99.90
31661;DHT22;18267;52.234;7.444;2022-08-19T06:53:59;20.30;99.90
31661;DHT22;18267;52.234;7.444;2022-08-19T06:56:28;20.30;99.90
31661;DHT22;18267;52.234;7.444;2022-08-19T06:59:11;20.40;99.90
31661;DHT22;18267;52.234;7.444;2022-08-19T07:01:43;20.50;99.90
31661;DHT22;18267;52.234;7.444;2022-08-19T07:04:11;20.50;99.90
31661;DHT22;18267;52.234;7.444;2022-08-19T07:06:37;20.60;99.90
31661;DHT22;18267;52.234;7.444;2022-08-19T07:09:07;20.70;99.90
31661;DHT22;18267;52.234;7.444;2022-08-19T07:11:34;20.70;99.90
31661;DHT22;18267;52.234;7.444;2022-08-19T07:14:00;20.70;99.90
31661;DHT22;18267;52.234;7.444;2022-08-19T07:16:26;20.80;99.90
31661;DHT22;18267;52.234;7.444;2022-08-19T07:18:53;20.80;99.90
31661;DHT22;18267;52.234;7.444;2022-08-19T07:21:26;20.80;99.90
31661;DHT22;18267;52.234;7.444;2022-08-19T07:23:56;20.90;99.90
31661;DHT22;18267;52.234;7.444;2022-08-19T07:26:30;21.00;99.90
31661;DHT22;18267;52.234;7.444;2022-08-19T07:28:56;21.10;99.90
31661;DHT22;18267;52.234;7.444;2022-08-19T07:31:24;21.10;99.90
31661;DHT22;18267;52.234;7.444;2022-08-19T07:33:52;21.20;99.90
31661;DHT22;18267;52.234;7.444;2022-08-19T07:36:20;21.30;99.90
31661;DHT22;18267;52.234;7.444;2022-08-19T07:38:48;21.30;99.90
31661;DHT22;18267;52.234;7.444;2022-08-19T07:41:19;21.40;99.90
31661;DHT22;18267;52.234;7.444;2022-08-19T07:43:45;21.40;99.90
31661;DHT22;18267;52.234;7.444;2022-08-19T07:46:11;21.50;99.90
31661;DHT22;18267;52.234;7.444;2022-08-19T07:48:40;21.60;99.90
31661;DHT22;18267;52.234;7.444;2022-08-19T07:51:08;21.60;99.90
31661;DHT22;18267;52.234;7.444;2022-08-19T07:53:34;21.70;99.90
31661;DHT22;18267;52.234;7.444;2022-08-19T07:56:00;21.80;99.90
31661;DHT22;18267;52.234;7.444;2022-08-19T07:58:31;21.80;99.90
31661;DHT22;18267;52.234;7.444;2022-08-19T08:00:57;21.90;99.90
31661;DHT22;18267;52.234;7.444;2022-08-19T08:03:23;21.90;99.90
31661;DHT22;18267;52.234;7.444;2022-08-19T08:06:09;21.90;99.90
31661;DHT22;18267;52.234;7.444;2022-08-19T08:08:53;21.90;99.90
31661;DHT22;18267;52.234;7.444;2022-08-19T08:11:44;22.00;99.90
31661;DHT22;18267;52.234;7.444;2022-08-19T08:14:18;22.10;99.90
31661;DHT22;18267;52.234;7.444;2022-08-19T08:16:44;22.10;99.90
31661;DHT22;18267;52.234;7.444;2022-08-19T08:19:12;22.10;99.90
31661;DHT22;18267;52.234;7.444;2022-08-19T08:21:40;22.10;99.90
31661;DHT22;18267;52.234;7.444;2022-08-19T08:24:05;22.20;99.90
31661;DHT22;18267;52.234;7.444;2022-08-19T08:26:31;22.30;99.90
31661;DHT22;18267;52.234;7.444;2022-08-19T08:28:56;22.30;99.90
31661;DHT22;18267;52.234;7.444;2022-08-19T08:31:22;22.50;99.90
31661;DHT22;18267;52.234;7.444;2022-08-19T08:33:48;22.50;99.90
31661;DHT22;18267;52.234;7.444;2022-08-19T08:36:14;22.50;99.90
31661;DHT22;18267;52.234;7.444;2022-08-19T08:38:41;22.50;99.90
31661;DHT22;18267;52.234;7.444;2022-08-19T08:43:45;22.60;99.90
31661;DHT22;18267;52.234;7.444;2022-08-19T08:46:17;22.60;99.90
31661;DHT22;18267;52.234;7.444;2022-08-19T08:48:57;22.70;99.90
31661;DHT22;18267;52.234;7.444;2022-08-19T08:51:33;22.70;99.90
31661;DHT22;18267;52.234;7.444;2022-08-19T08:54:02;22.80;99.90
31661;DHT22;18267;52.234;7.444;2022-08-19T08:56:28;22.90;99.90
31661;DHT22;18267;52.234;7.444;2022-08-19T08:59:02;22.90;99.90
31661;DHT22;18267;52.234;7.444;2022-08-19T09:01:29;23.00;99.90
31661;DHT22;18267;52.234;7.444;2022-08-19T09:03:54;23.00;99.90
31661;DHT22;18267;52.234;7.444;2022-08-19T09:06:37;23.10;99.90
31661;DHT22;18267;52.234;7.444;2022-08-19T09:14:53;23.40;99.90
31661;DHT22;18267;52.234;7.444;2022-08-19T09:17:23;23.50;99.90
31661;DHT22;18267;52.234;7.444;2022-08-19T09:20:04;23.60;99.90
31661;DHT22;18267;52.234;7.444;2022-08-19T09:22:35;23.60;99.90
31661;DHT22;18267;52.234;7.444;2022-08-19T09:25:02;23.60;99.90
31661;DHT22;18267;52.234;7.444;2022-08-19T09:27:29;23.70;99.90
31661;DHT22;18267;52.234;7.444;2022-08-19T09:29:54;23.70;99.90
31661;DHT22;18267;52.234;7.444;2022-08-19T09:32:21;23.80;99.90
31661;DHT22;18267;52.234;7.444;2022-08-19T09:34:47;23.70;99.90
31661;DHT22;18267;52.234;7.444;2022-08-19T09:37:13;23.80;99.90
31661;DHT22;18267;52.234;7.444;2022-08-19T09:39:40;23.80;99.90
31661;DHT22;18267;52.234;7.444;2022-08-19T09:42:09;23.80;99.90
31661;DHT22;18267;52.234;7.444;2022-08-19T09:44:40;23.80;99.90
31661;DHT22;18267;52.234;7.444;2022-08-19T09:47:06;23.80;99.90
31661;DHT22;18267;52.234;7.444;2022-08-19T09:49:32;23.90;99.90
31661;DHT22;18267;52.234;7.444;2022-08-19T09:51:59;23.90;99.90
31661;DHT22;18267;52.234;7.444;2022-08-19T09:54:25;24.00;99.90
31661;DHT22;18267;52.234;7.444;2022-08-19T09:56:51;24.10;99.90
31661;DHT22;18267;52.234;7.444;2022-08-19T09:59:16;24.20;99.90
31661;DHT22;18267;52.234;7.444;2022-08-19T10:01:42;24.30;99.90
31661;DHT22;18267;52.234;7.444;2022-08-19T10:04:07;24.30;99.90
31661;DHT22;18267;52.234;7.444;2022-08-19T10:06:35;24.20;99.90
31661;DHT22;18267;52.234;7.444;2022-08-19T10:09:00;24.20;99.90
31661;DHT22;18267;52.234;7.444;2022-08-19T10:11:26;24.20;99.90
31661;DHT22;18267;52.234;7.444;2022-08-19T10:13:53;24.10;99.90
31661;DHT22;18267;52.234;7.444;2022-08-19T10:16:22;24.10;99.90
31661;DHT22;18267;52.234;7.444;2022-08-19T10:18:49;24.10;99.90
31661;DHT22;18267;52.234;7.444;2022-08-19T10:21:19;24.20;99.90
31661;DHT22;18267;52.234;7.444;2022-08-19T10:23:47;24.20;99.90
31661;DHT22;18267;52.234;7.444;2022-08-19T10:26:15;24.20;99.90
31661;DHT22;18267;52.234;7.444;2022-08-19T10:28:42;24.30;99.90
31661;DHT22;18267;52.234;7.444;2022-08-19T10:31:10;24.30;99.90
31661;DHT22;18267;52.234;7.444;2022-08-19T10:33:37;24.40;99.90
31661;DHT22;18267;52.234;7.444;2022-08-19T10:36:24;24.40;99.90
31661;DHT22;18267;52.234;7.444;2022-08-19T10:38:52;24.50;99.90
31661;DHT22;18267;52.234;7.444;2022-08-19T10:41:21;24.50;99.90
31661;DHT22;18267;52.234;7.444;2022-08-19T10:43:58;24.60;99.90
31661;DHT22;18267;52.234;7.444;2022-08-19T10:46:25;24.70;99.90
31661;DHT22;18267;52.234;7.444;2022-08-19T10:48:51;24.80;99.80
31661;DHT22;18267;52.234;7.444;2022-08-19T10:51:18;24.90;99.90
31661;DHT22;18267;52.234;7.444;2022-08-19T10:54:03;24.90;99.90
31661;DHT22;18267;52.234;7.444;2022-08-19T10:56:29;24.90;99.90
31661;DHT22;18267;52.234;7.444;2022-08-19T10:59:14;25.00;99.90
31661;DHT22;18267;52.234;7.444;2022-08-19T11:01:42;25.10;99.90
31661;DHT22;18267;52.234;7.444;2022-08-19T11:04:08;25.20;99.90
31661;DHT22;18267;52.234;7.444;2022-08-19T11:06:37;25.20;99.90
31661;DHT22;18267;52.234;7.444;2022-08-19T11:09:04;25.20;99.70
31661;DHT22;18267;52.234;7.444;2022-08-19T11:11:31;25.10;99.50
31661;DHT22;18267;52.234;7.444;2022-08-19T11:13:58;25.20;99.20
31661;DHT22;18267;52.234;7.444;2022-08-19T11:16:25;25.20;97.90
31661;DHT22;18267;52.234;7.444;2022-08-19T11:18:54;25.00;98.30
31661;DHT22;18267;52.234;7.444;2022-08-19T11:21:28;24.90;98.00
31661;DHT22;18267;52.234;7.444;2022-08-19T11:23:56;24.80;97.90
31661;DHT22;18267;52.234;7.444;2022-08-19T11:26:23;24.90;98.30
31661;DHT22;18267;52.234;7.444;2022-08-19T11:28:49;24.90;98.50
31661;DHT22;18267;52.234;7.444;2022-08-19T11:31:20;24.90;98.20
31661;DHT22;18267;52.234;7.444;2022-08-19T11:33:46;24.90;97.90
31661;DHT22;18267;52.234;7.444;2022-08-19T11:36:16;25.00;97.70
31661;DHT22;18267;52.234;7.444;2022-08-19T11:38:41;25.00;97.50
31661;DHT22;18267;52.234;7.444;2022-08-19T11:41:07;25.00;97.90
31661;DHT22;18267;52.234;7.444;2022-08-19T11:43:34;25.00;98.30
31661;DHT22;18267;52.234;7.444;2022-08-19T11:46:07;25.00;98.00
31661;DHT22;18267;52.234;7.444;2022-08-19T11:48:33;25.10;97.80
31661;DHT22;18267;52.234;7.444;2022-08-19T11:50:59;25.10;97.40
31661;DHT22;18267;52.234;7.444;2022-08-19T11:53:30;25.20;97.90
31661;DHT22;18267;52.234;7.444;2022-08-19T11:55:55;25.20;97.70
31661;DHT22;18267;52.234;7.444;2022-08-19T11:58:22;25.00;97.80
31661;DHT22;18267;52.234;7.444;2022-08-19T12:00:48;25.00;98.40
31661;DHT22;18267;52.234;7.444;2022-08-19T12:03:14;25.00;98.00
31661;DHT22;18267;52.234;7.444;2022-08-19T12:05:40;25.10;98.10
31661;DHT22;18267;52.234;7.444;2022-08-19T12:08:06;25.10;98.10
31661;DHT22;18267;52.234;7.444;2022-08-19T12:10:33;25.10;97.80
31661;DHT22;18267;52.234;7.444;2022-08-19T12:12:58;25.20;97.40
31661;DHT22;18267;52.234;7.444;2022-08-19T12:15:24;25.20;97.60
31661;DHT22;18267;52.234;7.444;2022-08-19T12:17:49;25.20;97.70
31661;DHT22;18267;52.234;7.444;2022-08-19T12:20:15;25.20;97.50
31661;DHT22;18267;52.234;7.444;2022-08-19T12:22:42;25.20;96.90
31661;DHT22;18267;52.234;7.444;2022-08-19T12:25:10;25.30;95.60
31661;DHT22;18267;52.234;7.444;2022-08-19T12:27:35;25.30;95.90
31661;DHT22;18267;52.234;7.444;2022-08-19T12:30:03;25.40;96.40
31661;DHT22;18267;52.234;7.444;2022-08-19T12:32:29;25.50;96.40
31661;DHT22;18267;52.234;7.444;2022-08-19T12:34:55;25.60;95.70
31661;DHT22;18267;52.234;7.444;2022-08-19T12:37:20;25.60;95.50
31661;DHT22;18267;52.234;7.444;2022-08-19T12:39:46;25.50;95.60
31661;DHT22;18267;52.234;7.444;2022-08-19T12:42:13;25.50;95.70
31661;DHT22;18267;52.234;7.444;2022-08-19T12:44:40;25.40;95.80
31661;DHT22;18267;52.234;7.444;2022-08-19T12:47:07;25.40;95.60
31661;DHT22;18267;52.234;7.444;2022-08-19T12:49:35;25.40;95.00
31661;DHT22;18267;52.234;7.444;2022-08-19T12:52:06;25.50;94.80
31661;DHT22;18267;52.234;7.444;2022-08-19T12:54:33;25.50;94.30
31661;DHT22;18267;52.234;7.444;2022-08-19T12:56:59;25.40;93.70
31661;DHT22;18267;52.234;7.444;2022-08-19T12:59:25;25.40;94.60
31661;DHT22;18267;52.234;7.444;2022-08-19T13:01:51;25.40;95.30
31661;DHT22;18267;52.234;7.444;2022-08-19T13:04:17;25.40;95.40
31661;DHT22;18267;52.234;7.444;2022-08-19T13:06:43;25.40;95.90
31661;DHT22;18267;52.234;7.444;2022-08-19T13:09:09;25.40;96.00
31661;DHT22;18267;52.234;7.444;2022-08-19T13:11:35;25.40;96.30
31661;DHT22;18267;52.234;7.444;2022-08-19T13:14:02;25.40;96.40
31661;DHT22;18267;52.234;7.444;2022-08-19T13:16:29;25.40;96.50
31661;DHT22;18267;52.234;7.444;2022-08-19T13:18:55;25.40;96.70
31661;DHT22;18267;52.234;7.444;2022-08-19T13:21:25;25.40;97.00
31661;DHT22;18267;52.234;7.444;2022-08-19T13:23:52;25.40;97.00
31661;DHT22;18267;52.234;7.444;2022-08-19T13:26:24;25.30;97.00
31661;DHT22;18267;52.234;7.444;2022-08-19T13:28:50;25.40;97.20
31661;DHT22;18267;52.234;7.444;2022-08-19T13:31:35;25.40;97.30
31661;DHT22;18267;52.234;7.444;2022-08-19T13:34:28;25.50;97.50
31661;DHT22;18267;52.234;7.444;2022-08-19T13:36:53;25.50;97.30
31661;DHT22;18267;52.234;7.444;2022-08-19T13:39:19;25.50;96.70
31661;DHT22;18267;52.234;7.444;2022-08-19T13:41:46;25.50;96.60
31661;DHT22;18267;52.234;7.444;2022-08-19T13:44:16;25.50;96.60
31661;DHT22;18267;52.234;7.444;2022-08-19T13:46:46;25.50;96.60
31661;DHT22;18267;52.234;7.444;2022-08-19T13:49:14;25.50;96.40
31661;DHT22;18267;52.234;7.444;2022-08-19T13:51:41;25.50;96.40
31661;DHT22;18267;52.234;7.444;2022-08-19T13:54:07;25.50;96.50
31661;DHT22;18267;52.234;7.444;2022-08-19T13:56:34;25.60;96.20
31661;DHT22;18267;52.234;7.444;2022-08-19T13:59:00;25.60;96.50
31661;DHT22;18267;52.234;7.444;2022-08-19T14:01:26;25.60;96.50
31661;DHT22;18267;52.234;7.444;2022-08-19T14:03:52;25.70;96.20
31661;DHT22;18267;52.234;7.444;2022-08-19T14:06:19;25.70;95.70
31661;DHT22;18267;52.234;7.444;2022-08-19T14:08:45;25.70;94.40
31661;DHT22;18267;52.234;7.444;2022-08-19T14:11:11;25.70;94.80
31661;DHT22;18267;52.234;7.444;2022-08-19T14:13:37;25.70;95.40
31661;DHT22;18267;52.234;7.444;2022-08-19T14:16:09;25.70;96.00
31661;DHT22;18267;52.234;7.444;2022-08-19T14:18:35;25.70;96.30
31661;DHT22;18267;52.234;7.444;2022-08-19T14:21:01;25.70;96.00
31661;DHT22;18267;52.234;7.444;2022-08-19T14:23:28;25.70;95.80
31661;DHT22;18267;52.234;7.444;2022-08-19T14:26:12;25.70;95.50
31661;DHT22;18267;52.234;7.444;2022-08-19T14:28:39;25.70;95.30
31661;DHT22;18267;52.234;7.444;2022-08-19T14:31:15;25.80;95.00
31661;DHT22;18267;52.234;7.444;2022-08-19T14:33:45;25.70;94.70
31661;DHT22;18267;52.234;7.444;2022-08-19T14:36:10;25.70;94.60
31661;DHT22;18267;52.234;7.444;2022-08-19T14:38:36;25.70;94.70
31661;DHT22;18267;52.234;7.444;2022-08-19T14:41:11;25.70;94.70
31661;DHT22;18267;52.234;7.444;2022-08-19T14:43:38;25.70;93.70
31661;DHT22;18267;52.234;7.444;2022-08-19T14:46:04;25.70;93.20
31661;DHT22;18267;52.234;7.444;2022-08-19T14:48:29;25.70;93.40
31661;DHT22;18267;52.234;7.444;2022-08-19T14:50:56;25.70;93.60
31661;DHT22;18267;52.234;7.444;2022-08-19T14:53:21;25.70;94.00
31661;DHT22;18267;52.234;7.444;2022-08-19T14:55:47;25.70;94.50
31661;DHT22;18267;52.234;7.444;2022-08-19T14:58:13;25.60;94.80
31661;DHT22;18267;52.234;7.444;2022-08-19T15:00:40;25.60;94.80
31661;DHT22;18267;52.234;7.444;2022-08-19T15:03:05;25.60;94.50
31661;DHT22;18267;52.234;7.444;2022-08-19T15:05:31;25.60;94.70
31661;DHT22;18267;52.234;7.444;2022-08-19T15:07:57;25.50;95.00
31661;DHT22;18267;52.234;7.444;2022-08-19T15:10:23;25.50;95.10
31661;DHT22;18267;52.234;7.444;2022-08-19T15:12:50;25.50;95.20
31661;DHT22;18267;52.234;7.444;2022-08-19T15:15:16;25.50;94.80
31661;DHT22;18267;52.234;7.444;2022-08-19T15:17:43;25.60;94.90
31661;DHT22;18267;52.234;7.444;2022-08-19T15:20:11;25.60;95.30
31661;DHT22;18267;52.234;7.444;2022-08-19T15:22:38;25.60;95.30
31661;DHT22;18267;52.234;7.444;2022-08-19T15:25:05;25.60;95.20
31661;DHT22;18267;52.234;7.444;2022-08-19T15:27:31;25.60;95.00
31661;DHT22;18267;52.234;7.444;2022-08-19T15:29:56;25.60;95.10
31661;DHT22;18267;52.234;7.444;2022-08-19T15:32:22;25.70;95.20
31661;DHT22;18267;52.234;7.444;2022-08-19T15:34:48;25.60;95.00
31661;DHT22;18267;52.234;7.444;2022-08-19T15:37:14;25.60;95.00
31661;DHT22;18267;52.234;7.444;2022-08-19T15:39:40;25.60;95.10
31661;DHT22;18267;52.234;7.444;2022-08-19T15:42:05;25.60;95.20